sensor_id;sensor_type;location;lat;lon;timestamp;pressure;altitude;pressure_sealevel;temperature;humidity
56671;BME280;42545;50.054;8.306;2023-07-31T00:00:52;99777.44;;;16.22;94.73
56671;BME280;42545;50.054;8.306;2023-07-31T00:03:19;99780.06;;;16.23;94.52
56671;BME280;42545;50.054;8.306;2023-07-31T00:05:48;99780.06;;;16.25;94.07
56671;BME280;42545;50.054;8.306;2023-07-31T00:08:16;99779.13;;;16.27;93.87
56671;BME280;42545;50.054;8.306;2023-07-31T00:10:42;99774.66;;;16.29;93.57
56671;BME280;42545;50.054;8.306;2023-07-31T00:13:09;99772.03;;;16.28;93.29
56671;BME280;42545;50.054;8.306;2023-07-31T00:15:36;99771.97;;;16.32;93.40
56671;BME280;42545;50.054;8.306;2023-07-31T00:18:02;99773.72;;;16.33;93.42
56671;BME280;42545;50.054;8.306;2023-07-31T00:20:29;99762.19;;;16.36;93.89
56671;BME280;42545;50.054;8.306;2023-07-31T00:22:58;99760.41;;;16.35;94.09
56671;BME280;42545;50.054;8.306;2023-07-31T00:25:25;99755.09;;;16.33;94.17
56671;BME280;42545;50.054;8.306;2023-07-31T00:27:52;99764.88;;;16.33;94.56
56671;BME280;42545;50.054;8.306;2023-07-31T00:30:19;99763.13;;;16.32;95.03
56671;BME280;42545;50.054;8.306;2023-07-31T00:32:46;99764.94;;;16.28;95.67
56671;BME280;42545;50.054;8.306;2023-07-31T00:35:13;99762.31;;;16.25;96.31
56671;BME280;42545;50.054;8.306;2023-07-31T00:37:40;99760.56;;;16.23;96.73
56671;BME280;42545;50.054;8.306;2023-07-31T00:40:09;99735.88;;;16.10;97.47
56671;BME280;42545;50.054;8.306;2023-07-31T00:42:36;99759.72;;;16.18;98.50
56671;BME280;42545;50.054;8.306;2023-07-31T00:45:04;99757.97;;;16.13;99.42
56671;BME280;42545;50.054;8.306;2023-07-31T00:47:31;99757.19;;;16.07;100.00
56671;BME280;42545;50.054;8.306;2023-07-31T00:49:58;99762.53;;;16.02;100.00
56671;BME280;42545;50.054;8.306;2023-07-31T00:52:26;99759.03;;;15.99;100.00
56671;BME280;42545;50.054;8.306;2023-07-31T00:54:53;99759.97;;;15.96;100.00
56671;BME280;42545;50.054;8.306;2023-07-31T00:57:21;99760.84;;;15.95;100.00
56671;BME280;42545;50.054;8.306;2023-07-31T00:59:48;99754.63;;;15.96;100.00
56671;BME280;42545;50.054;8.306;2023-07-31T01:02:15;99743.16;;;15.92;100.00
56671;BME280;42545;50.054;8.306;2023-07-31T01:04:43;99746.66;;;15.94;100.00
56671;BME280;42545;50.054;8.306;2023-07-31T01:07:13;99735.16;;;15.94;100.00
56671;BME280;42545;50.054;8.306;2023-07-31T01:09:44;99737.81;;;15.94;100.00
56671;BME280;42545;50.054;8.306;2023-07-31T01:12:15;99744.94;;;15.92;100.00
56671;BME280;42545;50.054;8.306;2023-07-31T01:15:02;99752.00;;;15.91;100.00
56671;BME280;42545;50.054;8.306;2023-07-31T01:17:29;99747.63;;;15.89;100.00
56671;BME280;42545;50.054;8.306;2023-07-31T01:19:59;99744.06;;;15.90;100.00
56671;BME280;42545;50.054;8.306;2023-07-31T01:22:47;99743.16;;;15.89;100.00
56671;BME280;42545;50.054;8.306;2023-07-31T01:25:25;99730.81;;;15.84;100.00
56671;BME280;42545;50.054;8.306;2023-07-31T01:28:04;99744.13;;;15.84;100.00
56671;BME280;42545;50.054;8.306;2023-07-31T01:30:33;99739.72;;;15.81;100.00
56671;BME280;42545;50.054;8.306;2023-07-31T01:33:03;99742.31;;;15.84;100.00
56671;BME280;42545;50.054;8.306;2023-07-31T01:35:32;99734.38;;;15.83;100.00
56671;BME280;42545;50.054;8.306;2023-07-31T01:37:59;99714.91;;;15.79;100.00
56671;BME280;42545;50.054;8.306;2023-07-31T01:40:27;99712.19;;;15.85;100.00
56671;BME280;42545;50.054;8.306;2023-07-31T01:42:54;99704.16;;;15.88;97.57
56671;BME280;42545;50.054;8.306;2023-07-31T01:45:22;99708.47;;;15.97;96.17
56671;BME280;42545;50.054;8.306;2023-07-31T01:47:49;99701.28;;;16.07;94.44
56671;BME280;42545;50.054;8.306;2023-07-31T01:50:16;99698.53;;;16.14;92.24
56671;BME280;42545;50.054;8.306;2023-07-31T01:52:44;99691.38;;;16.21;91.62
56671;BME280;42545;50.054;8.306;2023-07-31T01:55:11;99697.44;;;16.32;90.49
56671;BME280;42545;50.054;8.306;2023-07-31T01:57:38;99697.34;;;16.39;89.27
56671;BME280;42545;50.054;8.306;2023-07-31T02:00:06;99700.81;;;16.45;89.14
56671;BME280;42545;50.054;8.306;2023-07-31T02:02:34;99705.19;;;16.51;88.69
56671;BME280;42545;50.054;8.306;2023-07-31T02:05:01;99696.22;;;16.55;88.16
56671;BME280;42545;50.054;8.306;2023-07-31T02:07:28;99699.81;;;16.54;87.76
56671;BME280;42545;50.054;8.306;2023-07-31T02:09:55;99693.53;;;16.60;86.92
56671;BME280;42545;50.054;8.306;2023-07-31T02:12:22;99689.91;;;16.62;85.56
56671;BME280;42545;50.054;8.306;2023-07-31T02:14:49;99693.41;;;16.66;85.09
56671;BME280;42545;50.054;8.306;2023-07-31T02:17:16;99686.25;;;16.71;85.14
56671;BME280;42545;50.054;8.306;2023-07-31T02:19:44;99695.97;;;16.73;85.02
56671;BME280;42545;50.054;8.306;2023-07-31T02:22:12;99697.75;;;16.73;84.79
56671;BME280;42545;50.054;8.306;2023-07-31T02:24:39;99702.25;;;16.71;84.86
56671;BME280;42545;50.054;8.306;2023-07-31T02:27:06;99696.03;;;16.72;83.63
56671;BME280;42545;50.054;8.306;2023-07-31T02:29:33;99691.53;;;16.74;83.63
56671;BME280;42545;50.054;8.306;2023-07-31T02:32:01;99693.28;;;16.77;83.90
56671;BME280;42545;50.054;8.306;2023-07-31T02:34:27;99687.94;;;16.78;83.21
56671;BME280;42545;50.054;8.306;2023-07-31T02:36:56;99686.97;;;16.81;83.53
56671;BME280;42545;50.054;8.306;2023-07-31T02:39:23;99692.31;;;16.81;83.95
56671;BME280;42545;50.054;8.306;2023-07-31T02:41:50;99702.09;;;16.80;83.89
56671;BME280;42545;50.054;8.306;2023-07-31T02:44:16;99701.25;;;16.78;83.76
56671;BME280;42545;50.054;8.306;2023-07-31T02:46:43;99701.25;;;16.78;83.65
56671;BME280;42545;50.054;8.306;2023-07-31T02:49:10;99707.47;;;16.77;84.04
56671;BME280;42545;50.054;8.306;2023-07-31T02:51:37;99710.19;;;16.74;83.99
56671;BME280;42545;50.054;8.306;2023-07-31T02:54:05;99713.75;;;16.73;84.68
56671;BME280;42545;50.054;8.306;2023-07-31T02:56:32;99709.34;;;16.72;85.46
56671;BME280;42545;50.054;8.306;2023-07-31T02:58:59;99713.75;;;16.73;86.46
56671;BME280;42545;50.054;8.306;2023-07-31T03:01:26;99712.03;;;16.69;87.27
56671;BME280;42545;50.054;8.306;2023-07-31T03:03:53;99713.88;;;16.64;88.37
56671;BME280;42545;50.054;8.306;2023-07-31T03:06:20;99703.34;;;16.56;89.84
56671;BME280;42545;50.054;8.306;2023-07-31T03:08:47;99695.41;;;16.50;90.65
56671;BME280;42545;50.054;8.306;2023-07-31T03:11:17;99699.97;;;16.43;91.92
56671;BME280;42545;50.054;8.306;2023-07-31T03:13:44;99706.22;;;16.39;93.21
56671;BME280;42545;50.054;8.306;2023-07-31T03:16:11;99704.47;;;16.37;94.22
56671;BME280;42545;50.054;8.306;2023-07-31T03:18:38;99695.66;;;16.31;95.05
56671;BME280;42545;50.054;8.306;2023-07-31T03:21:05;99697.47;;;16.28;96.38
56671;BME280;42545;50.054;8.306;2023-07-31T03:23:32;99703.78;;;16.21;97.00
56671;BME280;42545;50.054;8.306;2023-07-31T03:26:00;99699.41;;;16.15;97.52
56671;BME280;42545;50.054;8.306;2023-07-31T03:28:29;99699.41;;;16.15;98.53
56671;BME280;42545;50.054;8.306;2023-07-31T03:30:57;99699.41;;;16.13;98.91
56671;BME280;42545;50.054;8.306;2023-07-31T03:33:23;99704.78;;;16.12;99.79
56671;BME280;42545;50.054;8.306;2023-07-31T03:35:51;99705.66;;;16.12;100.00
56671;BME280;42545;50.054;8.306;2023-07-31T03:38:18;99704.81;;;16.10;100.00
56671;BME280;42545;50.054;8.306;2023-07-31T03:40:45;99704.84;;;16.06;100.00
56671;BME280;42545;50.054;8.306;2023-07-31T03:43:12;99711.06;;;16.06;100.00
56671;BME280;42545;50.054;8.306;2023-07-31T03:45:41;99708.44;;;16.03;100.00
56671;BME280;42545;50.054;8.306;2023-07-31T03:48:08;99707.56;;;16.03;100.00
56671;BME280;42545;50.054;8.306;2023-07-31T03:50:35;99700.44;;;16.03;100.00
56671;BME280;42545;50.054;8.306;2023-07-31T03:53:02;99698.69;;;16.02;99.86
56671;BME280;42545;50.054;8.306;2023-07-31T03:55:29;99701.31;;;16.05;99.85
56671;BME280;42545;50.054;8.306;2023-07-31T03:57:56;99699.47;;;16.10;99.77
56671;BME280;42545;50.054;8.306;2023-07-31T04:00:23;99695.03;;;16.12;99.67
56671;BME280;42545;50.054;8.306;2023-07-31T04:02:51;99694.09;;;16.15;100.00
56671;BME280;42545;50.054;8.306;2023-07-31T04:05:18;99686.06;;;16.18;100.00
56671;BME280;42545;50.054;8.306;2023-07-31T04:07:45;99678.09;;;16.17;100.00
56671;BME280;42545;50.054;8.306;2023-07-31T04:10:11;99684.28;;;16.20;99.41
56671;BME280;42545;50.054;8.306;2023-07-31T04:12:38;99680.72;;;16.21;99.09
56671;BME280;42545;50.054;8.306;2023-07-31T04:15:06;99678.00;;;16.24;98.79
56671;BME280;42545;50.054;8.306;2023-07-31T04:17:34;99671.78;;;16.27;98.51
56671;BME280;42545;50.054;8.306;2023-07-31T04:20:05;99672.63;;;16.30;97.72
56671;BME280;42545;50.054;8.306;2023-07-31T04:22:32;99669.00;;;16.33;97.67
56671;BME280;42545;50.054;8.306;2023-07-31T04:24:59;99675.19;;;16.35;96.30
56671;BME280;42545;50.054;8.306;2023-07-31T04:27:27;99670.72;;;16.37;95.08
56671;BME280;42545;50.054;8.306;2023-07-31T04:29:54;99671.63;;;16.38;94.28
56671;BME280;42545;50.054;8.306;2023-07-31T04:32:21;99664.50;;;16.38;93.34
56671;BME280;42545;50.054;8.306;2023-07-31T04:34:49;99659.19;;;16.38;92.50
56671;BME280;42545;50.054;8.306;2023-07-31T04:37:18;99657.41;;;16.39;92.10
56671;BME280;42545;50.054;8.306;2023-07-31T04:39:45;99660.97;;;16.38;91.92
56671;BME280;42545;50.054;8.306;2023-07-31T04:42:13;99653.03;;;16.34;91.91
56671;BME280;42545;50.054;8.306;2023-07-31T04:44:39;99659.16;;;16.41;91.64
56671;BME280;42545;50.054;8.306;2023-07-31T04:47:06;99659.19;;;16.40;90.19
56671;BME280;42545;50.054;8.306;2023-07-31T04:49:33;99665.34;;;16.42;90.35
56671;BME280;42545;50.054;8.306;2023-07-31T04:52:00;99668.00;;;16.43;90.33
56671;BME280;42545;50.054;8.306;2023-07-31T04:54:29;99662.66;;;16.45;90.03
56671;BME280;42545;50.054;8.306;2023-07-31T04:56:55;99664.41;;;16.46;90.66
56671;BME280;42545;50.054;8.306;2023-07-31T04:59:24;99673.25;;;16.46;90.22
56671;BME280;42545;50.054;8.306;2023-07-31T05:01:50;99665.31;;;16.45;89.57
56671;BME280;42545;50.054;8.306;2023-07-31T05:04:17;99674.16;;;16.47;89.62
56671;BME280;42545;50.054;8.306;2023-07-31T05:06:44;99668.84;;;16.47;89.20
56671;BME280;42545;50.054;8.306;2023-07-31T05:09:11;99677.69;;;16.47;88.37
56671;BME280;42545;50.054;8.306;2023-07-31T05:11:40;99670.59;;;16.46;88.08
56671;BME280;42545;50.054;8.306;2023-07-31T05:14:08;99667.91;;;16.49;88.48
56671;BME280;42545;50.054;8.306;2023-07-31T05:16:35;99664.34;;;16.52;88.10
56671;BME280;42545;50.054;8.306;2023-07-31T05:19:02;99663.41;;;16.53;88.35
56671;BME280;42545;50.054;8.306;2023-07-31T05:21:29;99670.53;;;16.54;88.37
56671;BME280;42545;50.054;8.306;2023-07-31T05:23:56;99663.41;;;16.55;88.60
56671;BME280;42545;50.054;8.306;2023-07-31T05:26:23;99666.94;;;16.55;88.93
56671;BME280;42545;50.054;8.306;2023-07-31T05:28:52;99677.56;;;16.57;88.94
56671;BME280;42545;50.054;8.306;2023-07-31T05:31:19;99674.91;;;16.57;89.20
56671;BME280;42545;50.054;8.306;2023-07-31T05:33:47;99670.44;;;16.59;89.93
56671;BME280;42545;50.054;8.306;2023-07-31T05:36:15;99671.28;;;16.61;90.61
56671;BME280;42545;50.054;8.306;2023-07-31T05:38:42;99667.78;;;16.59;91.00
56671;BME280;42545;50.054;8.306;2023-07-31T05:41:11;99661.47;;;16.64;91.90
56671;BME280;42545;50.054;8.306;2023-07-31T05:43:37;99662.44;;;16.59;92.43
56671;BME280;42545;50.054;8.306;2023-07-31T05:46:06;99668.59;;;16.64;93.20
56671;BME280;42545;50.054;8.306;2023-07-31T05:48:34;99673.03;;;16.65;93.35
56671;BME280;42545;50.054;8.306;2023-07-31T05:51:01;99659.75;;;16.62;92.92
56671;BME280;42545;50.054;8.306;2023-07-31T05:53:28;99657.06;;;16.63;93.55
56671;BME280;42545;50.054;8.306;2023-07-31T05:55:55;99644.59;;;16.65;93.83
56671;BME280;42545;50.054;8.306;2023-07-31T05:58:23;99638.34;;;16.66;92.16
56671;BME280;42545;50.054;8.306;2023-07-31T06:00:50;99633.03;;;16.66;91.03
56671;BME280;42545;50.054;8.306;2023-07-31T06:03:18;99628.59;;;16.68;91.14
56671;BME280;42545;50.054;8.306;2023-07-31T06:05:44;99629.41;;;16.72;90.76
56671;BME280;42545;50.054;8.306;2023-07-31T06:08:11;99638.25;;;16.76;89.50
56671;BME280;42545;50.054;8.306;2023-07-31T06:10:39;99640.84;;;16.77;89.85
56671;BME280;42545;50.054;8.306;2023-07-31T06:13:06;99648.78;;;16.82;89.97
56671;BME280;42545;50.054;8.306;2023-07-31T06:15:33;99646.13;;;16.82;88.59
56671;BME280;42545;50.054;8.306;2023-07-31T06:18:00;99643.38;;;16.88;88.31
56671;BME280;42545;50.054;8.306;2023-07-31T06:20:30;99642.50;;;16.89;88.44
56671;BME280;42545;50.054;8.306;2023-07-31T06:22:56;99640.66;;;16.93;87.82
56671;BME280;42545;50.054;8.306;2023-07-31T06:25:24;99633.56;;;16.91;87.92
56671;BME280;42545;50.054;8.306;2023-07-31T06:27:51;99634.41;;;16.94;87.83
56671;BME280;42545;50.054;8.306;2023-07-31T06:30:17;99637.00;;;16.98;88.65
56671;BME280;42545;50.054;8.306;2023-07-31T06:32:44;99634.25;;;17.03;88.50
56671;BME280;42545;50.054;8.306;2023-07-31T06:35:11;99636.88;;;17.06;88.27
56671;BME280;42545;50.054;8.306;2023-07-31T06:37:40;99646.66;;;17.05;88.24
56671;BME280;42545;50.054;8.306;2023-07-31T06:40:09;99633.38;;;17.04;86.58
56671;BME280;42545;50.054;8.306;2023-07-31T06:42:36;99639.53;;;17.06;86.76
56671;BME280;42545;50.054;8.306;2023-07-31T06:45:04;99636.84;;;17.09;85.94
56671;BME280;42545;50.054;8.306;2023-07-31T06:47:31;99647.44;;;17.12;85.78
56671;BME280;42545;50.054;8.306;2023-07-31T06:49:58;99649.13;;;17.18;85.61
56671;BME280;42545;50.054;8.306;2023-07-31T06:52:25;99639.22;;;17.24;85.96
56671;BME280;42545;50.054;8.306;2023-07-31T06:55:03;99638.22;;;17.30;85.19
56671;BME280;42545;50.054;8.306;2023-07-31T06:57:30;99639.06;;;17.34;85.19
56671;BME280;42545;50.054;8.306;2023-07-31T06:59:58;99632.84;;;17.35;85.44
56671;BME280;42545;50.054;8.306;2023-07-31T07:02:25;99630.06;;;17.39;84.98
56671;BME280;42545;50.054;8.306;2023-07-31T07:04:52;99622.03;;;17.41;84.64
56671;BME280;42545;50.054;8.306;2023-07-31T07:07:19;99630.84;;;17.46;85.16
56671;BME280;42545;50.054;8.306;2023-07-31T07:09:46;99621.78;;;17.55;85.31
56671;BME280;42545;50.054;8.306;2023-07-31T07:12:16;99627.78;;;17.67;84.52
56671;BME280;42545;50.054;8.306;2023-07-31T07:14:43;99618.63;;;17.79;84.53
56671;BME280;42545;50.054;8.306;2023-07-31T07:17:11;99617.44;;;17.96;83.67
56671;BME280;42545;50.054;8.306;2023-07-31T07:19:40;99615.28;;;18.15;83.47
56671;BME280;42545;50.054;8.306;2023-07-31T07:22:07;99604.19;;;18.33;82.95
56671;BME280;42545;50.054;8.306;2023-07-31T07:24:34;99595.00;;;18.45;82.09
56671;BME280;42545;50.054;8.306;2023-07-31T07:27:01;99578.72;;;18.56;81.95
56671;BME280;42545;50.054;8.306;2023-07-31T07:29:29;99580.50;;;18.57;79.49
56671;BME280;42545;50.054;8.306;2023-07-31T07:31:56;99577.81;;;18.57;79.29
56671;BME280;42545;50.054;8.306;2023-07-31T07:34:26;99588.41;;;18.60;80.05
56671;BME280;42545;50.054;8.306;2023-07-31T07:36:53;99589.28;;;18.62;80.02
56671;BME280;42545;50.054;8.306;2023-07-31T07:39:22;99588.22;;;18.69;80.26
56671;BME280;42545;50.054;8.306;2023-07-31T07:41:48;99578.38;;;18.71;79.51
56671;BME280;42545;50.054;8.306;2023-07-31T07:44:15;99565.84;;;18.73;79.78
56671;BME280;42545;50.054;8.306;2023-07-31T07:46:44;99584.31;;;18.84;79.55
56671;BME280;42545;50.054;8.306;2023-07-31T07:49:10;99576.28;;;18.84;77.99
56671;BME280;42545;50.054;8.306;2023-07-31T07:51:37;99578.94;;;18.86;78.35
56671;BME280;42545;50.054;8.306;2023-07-31T07:54:04;99585.22;;;18.83;77.97
56671;BME280;42545;50.054;8.306;2023-07-31T07:56:32;99576.38;;;18.81;78.13
56671;BME280;42545;50.054;8.306;2023-07-31T07:59:02;99588.03;;;18.77;77.98
56671;BME280;42545;50.054;8.306;2023-07-31T08:01:29;99577.47;;;18.71;78.33
56671;BME280;42545;50.054;8.306;2023-07-31T08:03:58;99581.16;;;18.65;78.61
56671;BME280;42545;50.054;8.306;2023-07-31T08:06:25;99580.34;;;18.61;79.25
56671;BME280;42545;50.054;8.306;2023-07-31T08:08:52;99582.28;;;18.56;79.07
56671;BME280;42545;50.054;8.306;2023-07-31T08:11:19;99580.59;;;18.52;78.73
56671;BME280;42545;50.054;8.306;2023-07-31T08:13:47;99577.94;;;18.51;79.41
56671;BME280;42545;50.054;8.306;2023-07-31T08:16:13;99578.84;;;18.51;79.34
56671;BME280;42545;50.054;8.306;2023-07-31T08:18:40;99570.94;;;18.47;79.10
56671;BME280;42545;50.054;8.306;2023-07-31T08:21:09;99558.38;;;18.50;79.54
56671;BME280;42545;50.054;8.306;2023-07-31T08:23:36;99557.31;;;18.57;80.21
56671;BME280;42545;50.054;8.306;2023-07-31T08:26:04;99553.66;;;18.60;79.26
56671;BME280;42545;50.054;8.306;2023-07-31T08:28:31;99555.38;;;18.64;80.04
56671;BME280;42545;50.054;8.306;2023-07-31T08:30:58;99555.22;;;18.70;80.33
56671;BME280;42545;50.054;8.306;2023-07-31T08:33:25;99552.44;;;18.75;80.02
56671;BME280;42545;50.054;8.306;2023-07-31T08:35:51;99557.66;;;18.79;79.24
56671;BME280;42545;50.054;8.306;2023-07-31T08:38:20;99552.25;;;18.84;79.27
56671;BME280;42545;50.054;8.306;2023-07-31T08:40:50;99547.72;;;18.86;77.89
56671;BME280;42545;50.054;8.306;2023-07-31T08:43:18;99547.72;;;18.86;78.33
56671;BME280;42545;50.054;8.306;2023-07-31T08:45:45;99559.22;;;18.90;78.50
56671;BME280;42545;50.054;8.306;2023-07-31T08:48:15;99545.84;;;18.90;77.55
56671;BME280;42545;50.054;8.306;2023-07-31T08:50:43;99548.34;;;18.96;78.05
56671;BME280;42545;50.054;8.306;2023-07-31T08:53:10;99549.00;;;19.06;78.84
56671;BME280;42545;50.054;8.306;2023-07-31T08:55:38;99548.75;;;19.15;79.54
56671;BME280;42545;50.054;8.306;2023-07-31T08:58:06;99553.94;;;19.21;78.82
56671;BME280;42545;50.054;8.306;2023-07-31T09:00:35;99548.56;;;19.23;77.80
56671;BME280;42545;50.054;8.306;2023-07-31T09:03:08;99559.09;;;19.27;77.85
56671;BME280;42545;50.054;8.306;2023-07-31T09:05:36;99552.03;;;19.26;76.85
56671;BME280;42545;50.054;8.306;2023-07-31T09:08:05;99552.06;;;19.25;76.43
56671;BME280;42545;50.054;8.306;2023-07-31T09:10:33;99541.19;;;19.31;76.48
56671;BME280;42545;50.054;8.306;2023-07-31T09:13:02;99533.03;;;19.35;76.49
56671;BME280;42545;50.054;8.306;2023-07-31T09:15:29;99535.53;;;19.42;76.17
56671;BME280;42545;50.054;8.306;2023-07-31T09:18:01;99542.53;;;19.46;76.76
56671;BME280;42545;50.054;8.306;2023-07-31T09:20:28;99538.06;;;19.48;75.89
56671;BME280;42545;50.054;8.306;2023-07-31T09:23:05;99533.56;;;19.48;75.61
56671;BME280;42545;50.054;8.306;2023-07-31T09:25:33;99504.47;;;19.36;76.01
56671;BME280;42545;50.054;8.306;2023-07-31T09:28:04;99529.31;;;19.41;75.08
56671;BME280;42545;50.054;8.306;2023-07-31T09:30:44;99530.28;;;19.38;76.12
56671;BME280;42545;50.054;8.306;2023-07-31T09:33:12;99521.78;;;19.24;76.48
56671;BME280;42545;50.054;8.306;2023-07-31T09:35:40;99531.56;;;19.24;76.44
56671;BME280;42545;50.054;8.306;2023-07-31T09:38:18;99530.75;;;19.21;75.51
56671;BME280;42545;50.054;8.306;2023-07-31T09:40:46;99530.84;;;19.18;75.58
56671;BME280;42545;50.054;8.306;2023-07-31T09:43:23;99514.84;;;19.17;75.88
56671;BME280;42545;50.054;8.306;2023-07-31T09:45:56;99514.72;;;19.20;75.55
56671;BME280;42545;50.054;8.306;2023-07-31T09:48:24;99503.91;;;19.25;75.71
56671;BME280;42545;50.054;8.306;2023-07-31T09:50:53;99507.38;;;19.28;75.04
56671;BME280;42545;50.054;8.306;2023-07-31T09:53:27;99496.50;;;19.34;75.41
56671;BME280;42545;50.054;8.306;2023-07-31T09:55:58;99501.72;;;19.39;75.31
56671;BME280;42545;50.054;8.306;2023-07-31T09:58:28;99488.34;;;19.39;73.77
56671;BME280;42545;50.054;8.306;2023-07-31T10:00:57;99500.72;;;19.43;73.55
56671;BME280;42545;50.054;8.306;2023-07-31T10:03:25;99498.81;;;19.47;73.36
56671;BME280;42545;50.054;8.306;2023-07-31T10:05:53;99492.41;;;19.52;73.76
56671;BME280;42545;50.054;8.306;2023-07-31T10:08:23;99496.81;;;19.55;73.75
56671;BME280;42545;50.054;8.306;2023-07-31T10:10:54;99484.44;;;19.51;71.30
56671;BME280;42545;50.054;8.306;2023-07-31T10:13:27;99473.69;;;19.52;72.03
56671;BME280;42545;50.054;8.306;2023-07-31T10:15:58;99472.75;;;19.55;72.79
56671;BME280;42545;50.054;8.306;2023-07-31T10:18:26;99466.31;;;19.61;72.83
56671;BME280;42545;50.054;8.306;2023-07-31T10:20:54;99457.19;;;19.68;72.45
56671;BME280;42545;50.054;8.306;2023-07-31T10:23:24;99455.25;;;19.73;72.57
56671;BME280;42545;50.054;8.306;2023-07-31T10:25:53;99465.59;;;19.85;73.00
56671;BME280;42545;50.054;8.306;2023-07-31T10:28:20;99465.31;;;19.94;73.03
56671;BME280;42545;50.054;8.306;2023-07-31T10:30:50;99468.66;;;20.01;72.87
56671;BME280;42545;50.054;8.306;2023-07-31T10:33:18;99467.84;;;19.99;70.33
56671;BME280;42545;50.054;8.306;2023-07-31T10:35:47;99466.09;;;19.98;69.84
56671;BME280;42545;50.054;8.306;2023-07-31T10:38:14;99466.09;;;19.98;69.18
56671;BME280;42545;50.054;8.306;2023-07-31T10:40:41;99463.28;;;20.03;69.48
56671;BME280;42545;50.054;8.306;2023-07-31T10:43:23;99462.19;;;20.08;68.08
56671;BME280;42545;50.054;8.306;2023-07-31T10:45:53;99464.66;;;20.14;67.97
56671;BME280;42545;50.054;8.306;2023-07-31T10:48:20;99461.94;;;20.16;66.96
56671;BME280;42545;50.054;8.306;2023-07-31T10:50:50;99456.44;;;20.21;66.27
56671;BME280;42545;50.054;8.306;2023-07-31T10:53:24;99456.25;;;20.27;67.34
56671;BME280;42545;50.054;8.306;2023-07-31T10:55:51;99442.56;;;20.34;67.90
56671;BME280;42545;50.054;8.306;2023-07-31T10:58:19;99452.34;;;20.37;67.20
56671;BME280;42545;50.054;8.306;2023-07-31T11:00:47;99449.50;;;20.42;67.00
56671;BME280;42545;50.054;8.306;2023-07-31T11:03:16;99454.75;;;20.45;66.72
56671;BME280;42545;50.054;8.306;2023-07-31T11:05:50;99437.78;;;20.44;66.30
56671;BME280;42545;50.054;8.306;2023-07-31T11:08:20;99448.44;;;20.46;66.42
56671;BME280;42545;50.054;8.306;2023-07-31T11:10:49;99444.81;;;20.48;66.89
56671;BME280;42545;50.054;8.306;2023-07-31T11:13:16;99435.72;;;20.52;66.85
56671;BME280;42545;50.054;8.306;2023-07-31T11:15:43;99438.19;;;20.59;66.43
56671;BME280;42545;50.054;8.306;2023-07-31T11:18:10;99438.84;;;20.67;67.09
56671;BME280;42545;50.054;8.306;2023-07-31T11:20:39;99425.34;;;20.70;66.90
56671;BME280;42545;50.054;8.306;2023-07-31T11:23:08;99430.03;;;20.63;66.48
56671;BME280;42545;50.054;8.306;2023-07-31T11:25:37;99434.06;;;20.75;65.79
56671;BME280;42545;50.054;8.306;2023-07-31T11:28:06;99435.78;;;20.78;64.63
56671;BME280;42545;50.054;8.306;2023-07-31T11:30:33;99427.50;;;20.84;65.26
56671;BME280;42545;50.054;8.306;2023-07-31T11:33:01;99429.16;;;20.88;65.09
56671;BME280;42545;50.054;8.306;2023-07-31T11:35:30;99427.28;;;20.90;64.19
56671;BME280;42545;50.054;8.306;2023-07-31T11:38:00;99434.25;;;20.96;65.51
56671;BME280;42545;50.054;8.306;2023-07-31T11:40:27;99425.22;;;20.98;64.54
56671;BME280;42545;50.054;8.306;2023-07-31T11:42:56;99427.84;;;21.00;64.93
56671;BME280;42545;50.054;8.306;2023-07-31T11:45:25;99423.34;;;21.00;65.44
56671;BME280;42545;50.054;8.306;2023-07-31T11:47:54;99413.47;;;21.01;65.75
56671;BME280;42545;50.054;8.306;2023-07-31T11:50:22;99416.34;;;20.96;65.49
56671;BME280;42545;50.054;8.306;2023-07-31T11:52:52;99410.31;;;20.89;64.68
56671;BME280;42545;50.054;8.306;2023-07-31T11:55:21;99417.59;;;20.86;65.32
56671;BME280;42545;50.054;8.306;2023-07-31T11:57:49;99416.88;;;20.81;65.62
56671;BME280;42545;50.054;8.306;2023-07-31T12:00:18;99414.34;;;20.78;65.92
56671;BME280;42545;50.054;8.306;2023-07-31T12:02:45;99415.25;;;20.77;66.56
56671;BME280;42545;50.054;8.306;2023-07-31T12:05:13;99406.44;;;20.73;66.52
56671;BME280;42545;50.054;8.306;2023-07-31T12:07:47;99409.19;;;20.71;66.76
56671;BME280;42545;50.054;8.306;2023-07-31T12:10:31;99406.56;;;20.70;67.45
56671;BME280;42545;50.054;8.306;2023-07-31T12:13:01;99399.50;;;20.67;67.73
56671;BME280;42545;50.054;8.306;2023-07-31T12:15:36;99393.28;;;20.67;67.52
56671;BME280;42545;50.054;8.306;2023-07-31T12:18:08;99386.03;;;20.69;67.70
56671;BME280;42545;50.054;8.306;2023-07-31T12:20:40;99387.69;;;20.73;68.44
56671;BME280;42545;50.054;8.306;2023-07-31T12:23:07;99390.34;;;20.73;67.88
56671;BME280;42545;50.054;8.306;2023-07-31T12:25:35;99384.19;;;20.71;66.71
56671;BME280;42545;50.054;8.306;2023-07-31T12:28:06;99372.53;;;20.72;66.76
56671;BME280;42545;50.054;8.306;2023-07-31T12:30:37;99376.75;;;20.79;67.77
56671;BME280;42545;50.054;8.306;2023-07-31T12:33:05;99365.75;;;20.87;67.70
56671;BME280;42545;50.054;8.306;2023-07-31T12:35:37;99358.81;;;21.05;67.62
56671;BME280;42545;50.054;8.306;2023-07-31T12:38:04;99349.94;;;21.26;67.09
56671;BME280;42545;50.054;8.306;2023-07-31T12:40:31;99344.66;;;21.48;65.03
56671;BME280;42545;50.054;8.306;2023-07-31T12:43:02;99340.22;;;21.69;64.93
56671;BME280;42545;50.054;8.306;2023-07-31T12:45:30;99333.09;;;21.91;64.50
56671;BME280;42545;50.054;8.306;2023-07-31T12:47:57;99332.38;;;22.07;63.99
56671;BME280;42545;50.054;8.306;2023-07-31T12:50:24;99337.13;;;22.21;63.03
56671;BME280;42545;50.054;8.306;2023-07-31T12:52:52;99342.38;;;22.26;62.49
56671;BME280;42545;50.054;8.306;2023-07-31T12:55:20;99344.22;;;22.24;61.64
56671;BME280;42545;50.054;8.306;2023-07-31T12:57:48;99355.16;;;22.19;61.75
56671;BME280;42545;50.054;8.306;2023-07-31T13:00:19;99336.72;;;22.10;60.17
56671;BME280;42545;50.054;8.306;2023-07-31T13:02:46;99346.50;;;22.13;61.17
56671;BME280;42545;50.054;8.306;2023-07-31T13:05:13;99339.78;;;22.23;61.43